sensor_id;sensor_type;location;lat;lon;timestamp;temperature;humidity
37594;DHT22;23441;50.856;6.076;2023-02-01T00:01:50;5.40;99.90
37594;DHT22;23441;50.856;6.076;2023-02-01T00:04:16;5.40;99.90
37594;DHT22;23441;50.856;6.076;2023-02-01T00:06:42;5.40;99.90
37594;DHT22;23441;50.856;6.076;2023-02-01T00:09:07;5.40;99.90
37594;DHT22;23441;50.856;6.076;2023-02-01T00:11:33;5.40;99.90
37594;DHT22;23441;50.856;6.076;2023-02-01T00:13:59;5.40;99.90
37594;DHT22;23441;50.856;6.076;2023-02-01T00:16:27;5.40;99.90
37594;DHT22;23441;50.856;6.076;2023-02-01T00:19:03;5.40;99.90
37594;DHT22;23441;50.856;6.076;2023-02-01T00:21:30;5.40;99.90
37594;DHT22;23441;50.856;6.076;2023-02-01T00:23:56;5.40;99.90
37594;DHT22;23441;50.856;6.076;2023-02-01T00:28:56;5.50;99.90
37594;DHT22;23441;50.856;6.076;2023-02-01T00:31:22;5.50;99.90
37594;DHT22;23441;50.856;6.076;2023-02-01T00:33:48;5.50;99.90
37594;DHT22;23441;50.856;6.076;2023-02-01T00:36:14;5.50;99.90
37594;DHT22;23441;50.856;6.076;2023-02-01T00:38:39;5.50;99.90
37594;DHT22;23441;50.856;6.076;2023-02-01T00:41:25;5.50;99.90
37594;DHT22;23441;50.856;6.076;2023-02-01T00:43:51;5.50;99.90
37594;DHT22;23441;50.856;6.076;2023-02-01T00:46:19;5.50;99.90
37594;DHT22;23441;50.856;6.076;2023-02-01T00:48:45;5.50;99.90
37594;DHT22;23441;50.856;6.076;2023-02-01T00:51:16;5.50;99.90
37594;DHT22;23441;50.856;6.076;2023-02-01T00:53:42;5.50;99.90
37594;DHT22;23441;50.856;6.076;2023-02-01T00:56:08;5.50;99.90
37594;DHT22;23441;50.856;6.076;2023-02-01T00:58:34;5.50;99.90
37594;DHT22;23441;50.856;6.076;2023-02-01T01:01:11;5.50;99.90
37594;DHT22;23441;50.856;6.076;2023-02-01T01:03:40;5.50;99.90
37594;DHT22;23441;50.856;6.076;2023-02-01T01:06:10;5.50;99.90
37594;DHT22;23441;50.856;6.076;2023-02-01T01:08:37;5.50;99.90
37594;DHT22;23441;50.856;6.076;2023-02-01T01:11:17;5.40;99.90
37594;DHT22;23441;50.856;6.076;2023-02-01T01:13:46;5.40;99.90
37594;DHT22;23441;50.856;6.076;2023-02-01T01:16:12;5.40;99.90
37594;DHT22;23441;50.856;6.076;2023-02-01T01:18:38;5.40;99.90
37594;DHT22;23441;50.856;6.076;2023-02-01T01:21:05;5.40;99.90
37594;DHT22;23441;50.856;6.076;2023-02-01T01:23:31;5.40;99.90
37594;DHT22;23441;50.856;6.076;2023-02-01T01:25:58;5.40;99.90
37594;DHT22;23441;50.856;6.076;2023-02-01T01:28:24;5.50;99.90
37594;DHT22;23441;50.856;6.076;2023-02-01T01:30:49;5.50;99.90
37594;DHT22;23441;50.856;6.076;2023-02-01T01:33:15;5.50;99.90
37594;DHT22;23441;50.856;6.076;2023-02-01T01:35:41;5.60;99.90
37594;DHT22;23441;50.856;6.076;2023-02-01T01:38:07;5.60;99.90
37594;DHT22;23441;50.856;6.076;2023-02-01T01:40:33;5.60;99.90
37594;DHT22;23441;50.856;6.076;2023-02-01T01:42:59;5.70;99.90
37594;DHT22;23441;50.856;6.076;2023-02-01T01:47:54;5.70;99.90
37594;DHT22;23441;50.856;6.076;2023-02-01T01:50:30;5.60;99.90
37594;DHT22;23441;50.856;6.076;2023-02-01T01:53:00;5.60;99.90
37594;DHT22;23441;50.856;6.076;2023-02-01T01:55:32;5.60;99.90
37594;DHT22;23441;50.856;6.076;2023-02-01T01:58:06;5.60;99.90
37594;DHT22;23441;50.856;6.076;2023-02-01T02:00:34;5.60;99.90
37594;DHT22;23441;50.856;6.076;2023-02-01T02:03:10;5.60;99.90
37594;DHT22;23441;50.856;6.076;2023-02-01T02:05:37;5.60;99.90
37594;DHT22;23441;50.856;6.076;2023-02-01T02:08:03;5.50;99.90
37594;DHT22;23441;50.856;6.076;2023-02-01T02:10:29;5.50;99.90
37594;DHT22;23441;50.856;6.076;2023-02-01T02:13:15;5.60;99.90
37594;DHT22;23441;50.856;6.076;2023-02-01T02:15:49;5.60;99.90
37594;DHT22;23441;50.856;6.076;2023-02-01T02:21:18;5.60;99.90
37594;DHT22;23441;50.856;6.076;2023-02-01T02:29:37;5.60;99.90
37594;DHT22;23441;50.856;6.076;2023-02-01T02:37:31;5.70;99.90
37594;DHT22;23441;50.856;6.076;2023-02-01T02:43:12;5.70;99.90
37594;DHT22;23441;50.856;6.076;2023-02-01T02:46:24;5.70;99.90
37594;DHT22;23441;50.856;6.076;2023-02-01T02:49:20;5.70;99.90
37594;DHT22;23441;50.856;6.076;2023-02-01T02:52:12;5.70;99.90
37594;DHT22;23441;50.856;6.076;2023-02-01T02:54:59;5.80;99.90
37594;DHT22;23441;50.856;6.076;2023-02-01T02:57:37;5.80;99.90
37594;DHT22;23441;50.856;6.076;2023-02-01T03:00:27;5.80;99.90
37594;DHT22;23441;50.856;6.076;2023-02-01T03:03:12;5.80;99.90
37594;DHT22;23441;50.856;6.076;2023-02-01T03:05:56;5.80;99.90
37594;DHT22;23441;50.856;6.076;2023-02-01T03:08:23;5.80;99.90
37594;DHT22;23441;50.856;6.076;2023-02-01T03:13:25;5.80;99.90
37594;DHT22;23441;50.856;6.076;2023-02-01T03:21:08;5.80;99.90
37594;DHT22;23441;50.856;6.076;2023-02-01T03:23:36;5.70;99.90
37594;DHT22;23441;50.856;6.076;2023-02-01T03:26:09;5.80;99.90
37594;DHT22;23441;50.856;6.076;2023-02-01T03:28:37;5.80;99.90
37594;DHT22;23441;50.856;6.076;2023-02-01T03:31:07;5.80;99.90
37594;DHT22;23441;50.856;6.076;2023-02-01T03:33:33;5.80;99.90
37594;DHT22;23441;50.856;6.076;2023-02-01T03:36:24;5.80;99.90
37594;DHT22;23441;50.856;6.076;2023-02-01T03:39:09;5.70;99.90
37594;DHT22;23441;50.856;6.076;2023-02-01T03:41:40;5.70;99.90
37594;DHT22;23441;50.856;6.076;2023-02-01T03:46:39;5.70;99.90
37594;DHT22;23441;50.856;6.076;2023-02-01T03:49:10;5.70;99.90
37594;DHT22;23441;50.856;6.076;2023-02-01T03:51:40;5.60;99.90
37594;DHT22;23441;50.856;6.076;2023-02-01T03:54:09;5.60;99.90
37594;DHT22;23441;50.856;6.076;2023-02-01T03:56:38;5.60;99.90
37594;DHT22;23441;50.856;6.076;2023-02-01T03:59:05;5.50;99.90
37594;DHT22;23441;50.856;6.076;2023-02-01T04:01:31;5.50;99.90
37594;DHT22;23441;50.856;6.076;2023-02-01T04:03:57;5.50;99.90
37594;DHT22;23441;50.856;6.076;2023-02-01T04:06:24;5.40;99.90
37594;DHT22;23441;50.856;6.076;2023-02-01T04:08:50;5.40;99.90
37594;DHT22;23441;50.856;6.076;2023-02-01T04:11:16;5.40;99.90
37594;DHT22;23441;50.856;6.076;2023-02-01T04:13:42;5.30;99.90
37594;DHT22;23441;50.856;6.076;2023-02-01T04:16:08;5.30;99.90
37594;DHT22;23441;50.856;6.076;2023-02-01T04:18:34;5.20;99.90
37594;DHT22;23441;50.856;6.076;2023-02-01T04:21:00;5.20;99.90
37594;DHT22;23441;50.856;6.076;2023-02-01T04:23:27;5.10;99.90
37594;DHT22;23441;50.856;6.076;2023-02-01T04:25:53;5.10;99.90
37594;DHT22;23441;50.856;6.076;2023-02-01T04:28:19;5.10;99.90
37594;DHT22;23441;50.856;6.076;2023-02-01T04:30:45;5.00;99.90
37594;DHT22;23441;50.856;6.076;2023-02-01T04:33:11;5.00;99.90
37594;DHT22;23441;50.856;6.076;2023-02-01T04:35:39;5.00;99.90
37594;DHT22;23441;50.856;6.076;2023-02-01T04:38:05;5.00;99.90
37594;DHT22;23441;50.856;6.076;2023-02-01T04:40:32;5.10;99.90
37594;DHT22;23441;50.856;6.076;2023-02-01T04:42:58;5.10;99.90
37594;DHT22;23441;50.856;6.076;2023-02-01T04:45:25;5.10;99.90
37594;DHT22;23441;50.856;6.076;2023-02-01T04:47:51;5.10;99.90
37594;DHT22;23441;50.856;6.076;2023-02-01T04:50:17;5.20;99.90
37594;DHT22;23441;50.856;6.076;2023-02-01T04:52:42;5.20;99.90
37594;DHT22;23441;50.856;6.076;2023-02-01T04:55:10;5.10;99.90
37594;DHT22;23441;50.856;6.076;2023-02-01T04:57:36;5.10;99.90
37594;DHT22;23441;50.856;6.076;2023-02-01T05:00:05;5.10;99.90
37594;DHT22;23441;50.856;6.076;2023-02-01T05:02:30;4.90;99.90
37594;DHT22;23441;50.856;6.076;2023-02-01T05:04:57;4.90;99.90
37594;DHT22;23441;50.856;6.076;2023-02-01T05:07:23;4.90;99.90
37594;DHT22;23441;50.856;6.076;2023-02-01T05:09:49;4.80;99.90
37594;DHT22;23441;50.856;6.076;2023-02-01T05:12:14;4.70;99.90
37594;DHT22;23441;50.856;6.076;2023-02-01T05:14:59;4.60;99.90
37594;DHT22;23441;50.856;6.076;2023-02-01T05:17:24;4.60;99.90
37594;DHT22;23441;50.856;6.076;2023-02-01T05:19:50;4.50;99.90
37594;DHT22;23441;50.856;6.076;2023-02-01T05:22:15;4.60;99.90
37594;DHT22;23441;50.856;6.076;2023-02-01T05:24:41;4.60;99.90
37594;DHT22;23441;50.856;6.076;2023-02-01T05:27:07;4.50;99.90
37594;DHT22;23441;50.856;6.076;2023-02-01T05:29:32;4.50;99.90
37594;DHT22;23441;50.856;6.076;2023-02-01T05:31:58;4.60;99.90
37594;DHT22;23441;50.856;6.076;2023-02-01T05:34:23;4.60;99.90
37594;DHT22;23441;50.856;6.076;2023-02-01T05:36:49;4.60;99.90
37594;DHT22;23441;50.856;6.076;2023-02-01T05:39:15;4.60;99.90
37594;DHT22;23441;50.856;6.076;2023-02-01T05:41:40;4.50;99.90
37594;DHT22;23441;50.856;6.076;2023-02-01T05:44:06;4.60;99.90
37594;DHT22;23441;50.856;6.076;2023-02-01T05:46:35;4.60;99.90
37594;DHT22;23441;50.856;6.076;2023-02-01T05:49:00;4.50;99.90
37594;DHT22;23441;50.856;6.076;2023-02-01T05:51:26;4.50;99.90
37594;DHT22;23441;50.856;6.076;2023-02-01T05:53:52;4.50;99.90
37594;DHT22;23441;50.856;6.076;2023-02-01T05:56:17;4.50;99.90
37594;DHT22;23441;50.856;6.076;2023-02-01T05:58:43;4.40;99.90
37594;DHT22;23441;50.856;6.076;2023-02-01T06:01:09;4.40;99.90
37594;DHT22;23441;50.856;6.076;2023-02-01T06:03:34;4.30;99.90
37594;DHT22;23441;50.856;6.076;2023-02-01T06:06:00;4.30;99.90
37594;DHT22;23441;50.856;6.076;2023-02-01T06:08:26;4.30;99.90
37594;DHT22;23441;50.856;6.076;2023-02-01T06:11:04;4.30;99.90
37594;DHT22;23441;50.856;6.076;2023-02-01T06:13:30;4.20;99.90
37594;DHT22;23441;50.856;6.076;2023-02-01T06:15:56;4.20;99.90
37594;DHT22;23441;50.856;6.076;2023-02-01T06:18:25;4.20;99.90
37594;DHT22;23441;50.856;6.076;2023-02-01T06:20:58;4.20;99.90
37594;DHT22;23441;50.856;6.076;2023-02-01T06:23:26;4.30;99.90
37594;DHT22;23441;50.856;6.076;2023-02-01T06:26:04;4.30;99.90
37594;DHT22;23441;50.856;6.076;2023-02-01T06:28:31;4.20;99.90
37594;DHT22;23441;50.856;6.076;2023-02-01T06:30:57;4.20;99.90
37594;DHT22;23441;50.856;6.076;2023-02-01T06:33:24;4.20;99.90
37594;DHT22;23441;50.856;6.076;2023-02-01T06:35:57;4.20;99.90
37594;DHT22;23441;50.856;6.076;2023-02-01T06:38:24;4.20;99.90
37594;DHT22;23441;50.856;6.076;2023-02-01T06:40:53;4.20;99.90
37594;DHT22;23441;50.856;6.076;2023-02-01T06:43:20;4.20;99.90
37594;DHT22;23441;50.856;6.076;2023-02-01T06:45:46;4.10;99.90
37594;DHT22;23441;50.856;6.076;2023-02-01T06:48:12;4.10;99.90
37594;DHT22;23441;50.856;6.076;2023-02-01T06:50:37;4.10;99.90
37594;DHT22;23441;50.856;6.076;2023-02-01T06:53:03;4.10;99.90
37594;DHT22;23441;50.856;6.076;2023-02-01T06:55:28;4.10;99.90
37594;DHT22;23441;50.856;6.076;2023-02-01T06:57:55;4.10;99.90
37594;DHT22;23441;50.856;6.076;2023-02-01T07:00:22;4.10;99.90
37594;DHT22;23441;50.856;6.076;2023-02-01T07:02:48;4.10;99.90
37594;DHT22;23441;50.856;6.076;2023-02-01T07:05:14;4.10;99.90
37594;DHT22;23441;50.856;6.076;2023-02-01T07:07:39;4.10;99.90
37594;DHT22;23441;50.856;6.076;2023-02-01T07:10:05;4.10;99.90
37594;DHT22;23441;50.856;6.076;2023-02-01T07:12:31;4.10;99.90
37594;DHT22;23441;50.856;6.076;2023-02-01T07:14:56;4.00;99.90
37594;DHT22;23441;50.856;6.076;2023-02-01T07:17:22;4.00;99.90
37594;DHT22;23441;50.856;6.076;2023-02-01T07:19:48;4.00;99.90
37594;DHT22;23441;50.856;6.076;2023-02-01T07:22:16;4.00;99.90
37594;DHT22;23441;50.856;6.076;2023-02-01T07:24:42;4.00;99.90
37594;DHT22;23441;50.856;6.076;2023-02-01T07:27:08;4.00;99.90
37594;DHT22;23441;50.856;6.076;2023-02-01T07:29:33;4.00;99.90
37594;DHT22;23441;50.856;6.076;2023-02-01T07:31:59;4.10;99.90
37594;DHT22;23441;50.856;6.076;2023-02-01T07:34:25;4.10;99.90
37594;DHT22;23441;50.856;6.076;2023-02-01T07:36:51;4.10;99.90
37594;DHT22;23441;50.856;6.076;2023-02-01T07:39:17;4.20;99.90
37594;DHT22;23441;50.856;6.076;2023-02-01T07:41:42;4.20;99.90
37594;DHT22;23441;50.856;6.076;2023-02-01T07:44:08;4.20;99.90
37594;DHT22;23441;50.856;6.076;2023-02-01T07:46:33;4.20;99.90
37594;DHT22;23441;50.856;6.076;2023-02-01T07:48:59;4.20;99.90
37594;DHT22;23441;50.856;6.076;2023-02-01T07:51:25;4.30;99.90
37594;DHT22;23441;50.856;6.076;2023-02-01T07:53:51;4.30;99.90
37594;DHT22;23441;50.856;6.076;2023-02-01T07:56:19;4.30;99.90
37594;DHT22;23441;50.856;6.076;2023-02-01T07:58:50;4.30;99.90
37594;DHT22;23441;50.856;6.076;2023-02-01T08:01:24;4.30;99.90
37594;DHT22;23441;50.856;6.076;2023-02-01T08:03:55;4.30;99.90
37594;DHT22;23441;50.856;6.076;2023-02-01T08:06:23;4.30;99.90
37594;DHT22;23441;50.856;6.076;2023-02-01T08:08:49;4.20;99.90
37594;DHT22;23441;50.856;6.076;2023-02-01T08:11:16;4.20;99.90
37594;DHT22;23441;50.856;6.076;2023-02-01T08:13:42;4.10;99.90
37594;DHT22;23441;50.856;6.076;2023-02-01T08:16:10;4.10;99.90
37594;DHT22;23441;50.856;6.076;2023-02-01T08:18:38;4.10;99.90
37594;DHT22;23441;50.856;6.076;2023-02-01T08:21:10;4.20;99.90
37594;DHT22;23441;50.856;6.076;2023-02-01T08:23:37;4.20;99.90
37594;DHT22;23441;50.856;6.076;2023-02-01T08:26:08;4.20;99.90
37594;DHT22;23441;50.856;6.076;2023-02-01T08:28:34;4.20;99.90
37594;DHT22;23441;50.856;6.076;2023-02-01T08:31:07;4.20;99.90
37594;DHT22;23441;50.856;6.076;2023-02-01T08:33:33;4.20;99.90
37594;DHT22;23441;50.856;6.076;2023-02-01T08:36:01;4.30;99.90
37594;DHT22;23441;50.856;6.076;2023-02-01T08:38:27;4.40;99.90
37594;DHT22;23441;50.856;6.076;2023-02-01T08:40:52;4.50;99.90
37594;DHT22;23441;50.856;6.076;2023-02-01T08:43:18;4.60;99.90
37594;DHT22;23441;50.856;6.076;2023-02-01T08:45:44;4.60;99.90
37594;DHT22;23441;50.856;6.076;2023-02-01T08:48:10;4.60;99.90
37594;DHT22;23441;50.856;6.076;2023-02-01T08:50:35;4.60;99.90
37594;DHT22;23441;50.856;6.076;2023-02-01T08:53:01;4.70;99.90
37594;DHT22;23441;50.856;6.076;2023-02-01T08:55:26;4.80;99.90
37594;DHT22;23441;50.856;6.076;2023-02-01T08:57:53;4.80;99.90
37594;DHT22;23441;50.856;6.076;2023-02-01T09:00:18;4.80;99.90
37594;DHT22;23441;50.856;6.076;2023-02-01T09:02:45;4.90;99.90
37594;DHT22;23441;50.856;6.076;2023-02-01T09:05:11;4.90;99.90
37594;DHT22;23441;50.856;6.076;2023-02-01T09:07:38;4.80;99.90
37594;DHT22;23441;50.856;6.076;2023-02-01T09:10:04;4.90;99.90
37594;DHT22;23441;50.856;6.076;2023-02-01T09:12:31;5.00;99.90
37594;DHT22;23441;50.856;6.076;2023-02-01T09:14:58;5.00;99.90
37594;DHT22;23441;50.856;6.076;2023-02-01T09:17:25;5.10;99.90
37594;DHT22;23441;50.856;6.076;2023-02-01T09:19:51;5.20;99.90
37594;DHT22;23441;50.856;6.076;2023-02-01T09:22:17;5.30;99.90
37594;DHT22;23441;50.856;6.076;2023-02-01T09:24:43;5.30;99.90
37594;DHT22;23441;50.856;6.076;2023-02-01T09:27:08;5.30;99.90
37594;DHT22;23441;50.856;6.076;2023-02-01T09:29:34;5.40;99.90
37594;DHT22;23441;50.856;6.076;2023-02-01T09:32:00;5.30;99.90
37594;DHT22;23441;50.856;6.076;2023-02-01T09:34:25;5.30;99.90
37594;DHT22;23441;50.856;6.076;2023-02-01T09:36:51;5.30;99.90
37594;DHT22;23441;50.856;6.076;2023-02-01T09:39:17;5.30;99.90
37594;DHT22;23441;50.856;6.076;2023-02-01T09:47:31;5.40;99.90
37594;DHT22;23441;50.856;6.076;2023-02-01T09:50:19;5.40;99.90
37594;DHT22;23441;50.856;6.076;2023-02-01T09:53:02;5.50;99.90
37594;DHT22;23441;50.856;6.076;2023-02-01T09:55:39;5.60;99.90
37594;DHT22;23441;50.856;6.076;2023-02-01T09:58:12;5.60;99.90
37594;DHT22;23441;50.856;6.076;2023-02-01T10:00:41;5.60;99.90
37594;DHT22;23441;50.856;6.076;2023-02-01T10:03:12;5.60;99.90
37594;DHT22;23441;50.856;6.076;2023-02-01T10:17:17;5.80;99.90
37594;DHT22;23441;50.856;6.076;2023-02-01T10:27:39;6.00;99.90
37594;DHT22;23441;50.856;6.076;2023-02-01T10:30:25;6.00;99.90
37594;DHT22;23441;50.856;6.076;2023-02-01T10:36:08;6.00;99.90
37594;DHT22;23441;50.856;6.076;2023-02-01T10:38:36;6.10;99.90
37594;DHT22;23441;50.856;6.076;2023-02-01T10:41:14;6.20;99.90
37594;DHT22;23441;50.856;6.076;2023-02-01T10:43:41;6.40;99.90
37594;DHT22;23441;50.856;6.076;2023-02-01T10:46:08;6.40;99.90
37594;DHT22;23441;50.856;6.076;2023-02-01T10:48:34;6.30;99.90
37594;DHT22;23441;50.856;6.076;2023-02-01T10:53:35;6.20;99.90
37594;DHT22;23441;50.856;6.076;2023-02-01T10:56:09;6.30;99.90
37594;DHT22;23441;50.856;6.076;2023-02-01T10:58:36;6.30;99.90
37594;DHT22;23441;50.856;6.076;2023-02-01T11:01:08;6.30;99.90
37594;DHT22;23441;50.856;6.076;2023-02-01T11:06:03;6.40;99.90
37594;DHT22;23441;50.856;6.076;2023-02-01T11:08:48;6.50;99.90
37594;DHT22;23441;50.856;6.076;2023-02-01T11:11:15;6.60;99.90
37594;DHT22;23441;50.856;6.076;2023-02-01T11:13:41;6.60;99.90
37594;DHT22;23441;50.856;6.076;2023-02-01T11:16:11;6.60;99.90
37594;DHT22;23441;50.856;6.076;2023-02-01T11:18:38;6.70;99.90
37594;DHT22;23441;50.856;6.076;2023-02-01T11:21:08;6.80;99.90
37594;DHT22;23441;50.856;6.076;2023-02-01T11:23:41;6.90;99.90
37594;DHT22;23441;50.856;6.076;2023-02-01T11:26:38;6.80;99.90
37594;DHT22;23441;50.856;6.076;2023-02-01T11:29:11;6.90;99.90
37594;DHT22;23441;50.856;6.076;2023-02-01T11:31:38;6.90;99.90
37594;DHT22;23441;50.856;6.076;2023-02-01T11:34:08;6.80;99.90
37594;DHT22;23441;50.856;6.076;2023-02-01T11:36:36;6.80;99.90
37594;DHT22;23441;50.856;6.076;2023-02-01T11:39:29;6.90;99.90
37594;DHT22;23441;50.856;6.076;2023-02-01T11:42:13;7.00;99.90
37594;DHT22;23441;50.856;6.076;2023-02-01T11:44:41;7.20;99.90
37594;DHT22;23441;50.856;6.076;2023-02-01T11:47:26;7.20;99.90
37594;DHT22;23441;50.856;6.076;2023-02-01T11:50:00;7.20;99.90
37594;DHT22;23441;50.856;6.076;2023-02-01T11:58:06;7.00;99.90
37594;DHT22;23441;50.856;6.076;2023-02-01T12:23:10;7.00;99.90
37594;DHT22;23441;50.856;6.076;2023-02-01T12:34:24;7.10;99.90
37594;DHT22;23441;50.856;6.076;2023-02-01T12:42:39;7.10;99.90
37594;DHT22;23441;50.856;6.076;2023-02-01T12:47:59;7.10;99.90
37594;DHT22;23441;50.856;6.076;2023-02-01T12:53:15;7.00;99.90
37594;DHT22;23441;50.856;6.076;2023-02-01T12:55:58;7.00;99.90
37594;DHT22;23441;50.856;6.076;2023-02-01T12:58:28;7.10;99.90
37594;DHT22;23441;50.856;6.076;2023-02-01T13:01:00;7.00;99.90
37594;DHT22;23441;50.856;6.076;2023-02-01T13:04:02;7.10;99.90
37594;DHT22;23441;50.856;6.076;2023-02-01T13:06:29;7.10;99.90
37594;DHT22;23441;50.856;6.076;2023-02-01T13:11:50;7.10;99.90
37594;DHT22;23441;50.856;6.076;2023-02-01T13:14:44;7.20;99.90
37594;DHT22;23441;50.856;6.076;2023-02-01T13:17:18;7.20;99.90
37594;DHT22;23441;50.856;6.076;2023-02-01T13:22:47;7.30;99.90
37594;DHT22;23441;50.856;6.076;2023-02-01T13:25:19;7.30;99.90
37594;DHT22;23441;50.856;6.076;2023-02-01T13:27:47;7.30;99.90
37594;DHT22;23441;50.856;6.076;2023-02-01T13:30:24;7.30;99.90
37594;DHT22;23441;50.856;6.076;2023-02-01T13:41:42;7.30;99.90
37594;DHT22;23441;50.856;6.076;2023-02-01T13:46:57;7.40;99.90
37594;DHT22;23441;50.856;6.076;2023-02-01T13:49:26;7.40;99.90
37594;DHT22;23441;50.856;6.076;2023-02-01T13:51:55;7.40;99.90
37594;DHT22;23441;50.856;6.076;2023-02-01T13:54:37;7.30;99.90
37594;DHT22;23441;50.856;6.076;2023-02-01T13:57:05;7.30;99.90
37594;DHT22;23441;50.856;6.076;2023-02-01T14:05:04;7.40;99.90
37594;DHT22;23441;50.856;6.076;2023-02-01T14:07:33;7.40;99.90
37594;DHT22;23441;50.856;6.076;2023-02-01T14:23:43;7.50;99.90
37594;DHT22;23441;50.856;6.076;2023-02-01T14:26:15;7.50;99.90
37594;DHT22;23441;50.856;6.076;2023-02-01T14:36:53;7.60;99.90
37594;DHT22;23441;50.856;6.076;2023-02-01T14:39:31;7.60;99.90
37594;DHT22;23441;50.856;6.076;2023-02-01T14:42:03;7.70;99.90
37594;DHT22;23441;50.856;6.076;2023-02-01T14:44:34;7.70;99.90
37594;DHT22;23441;50.856;6.076;2023-02-01T14:50:10;7.70;99.90
37594;DHT22;23441;50.856;6.076;2023-02-01T14:52:40;7.80;99.90
37594;DHT22;23441;50.856;6.076;2023-02-01T14:55:18;7.70;99.90
37594;DHT22;23441;50.856;6.076;2023-02-01T14:57:46;7.70;99.90
37594;DHT22;23441;50.856;6.076;2023-02-01T15:00:21;7.70;99.90
37594;DHT22;23441;50.856;6.076;2023-02-01T15:02:48;7.70;99.90
37594;DHT22;23441;50.856;6.076;2023-02-01T15:05:30;7.70;99.90
37594;DHT22;23441;50.856;6.076;2023-02-01T15:08:13;7.70;99.90
37594;DHT22;23441;50.856;6.076;2023-02-01T15:10:44;7.70;99.90
37594;DHT22;23441;50.856;6.076;2023-02-01T15:13:25;7.80;99.90
37594;DHT22;23441;50.856;6.076;2023-02-01T15:18:36;7.80;99.90
37594;DHT22;23441;50.856;6.076;2023-02-01T15:21:03;7.70;99.90
37594;DHT22;23441;50.856;6.076;2023-02-01T15:23:30;7.70;99.90
37594;DHT22;23441;50.856;6.076;2023-02-01T15:25:56;7.70;99.90
37594;DHT22;23441;50.856;6.076;2023-02-01T15:28:23;7.60;99.90
37594;DHT22;23441;50.856;6.076;2023-02-01T15:30:53;7.50;99.90
37594;DHT22;23441;50.856;6.076;2023-02-01T15:33:19;7.50;99.90
37594;DHT22;23441;50.856;6.076;2023-02-01T15:38:32;7.30;99.90
37594;DHT22;23441;50.856;6.076;2023-02-01T15:41:16;7.40;99.90
37594;DHT22;23441;50.856;6.076;2023-02-01T15:46:33;7.20;99.90
37594;DHT22;23441;50.856;6.076;2023-02-01T15:49:01;7.20;99.90
37594;DHT22;23441;50.856;6.076;2023-02-01T15:51:29;7.20;99.90
37594;DHT22;23441;50.856;6.076;2023-02-01T15:54:02;7.10;99.90
37594;DHT22;23441;50.856;6.076;2023-02-01T15:56:37;7.10;99.90
37594;DHT22;23441;50.856;6.076;2023-02-01T15:59:06;7.00;99.90
37594;DHT22;23441;50.856;6.076;2023-02-01T16:01:38;6.90;99.90
37594;DHT22;23441;50.856;6.076;2023-02-01T16:04:21;6.80;99.90
37594;DHT22;23441;50.856;6.076;2023-02-01T16:06:51;6.70;99.90
37594;DHT22;23441;50.856;6.076;2023-02-01T16:09:20;6.70;99.90
37594;DHT22;23441;50.856;6.076;2023-02-01T16:12:01;6.60;99.90
37594;DHT22;23441;50.856;6.076;2023-02-01T16:14:27;6.60;99.90
37594;DHT22;23441;50.856;6.076;2023-02-01T16:16:54;6.50;99.90
37594;DHT22;23441;50.856;6.076;2023-02-01T16:19:20;6.50;99.90
37594;DHT22;23441;50.856;6.076;2023-02-01T16:21:48;6.50;99.90
37594;DHT22;23441;50.856;6.076;2023-02-01T16:24:14;6.50;99.90
37594;DHT22;23441;50.856;6.076;2023-02-01T16:26:39;6.50;99.90
37594;DHT22;23441;50.856;6.076;2023-02-01T16:29:05;6.50;99.90
37594;DHT22;23441;50.856;6.076;2023-02-01T16:31:36;6.40;99.90
37594;DHT22;23441;50.856;6.076;2023-02-01T16:34:04;6.40;99.90
37594;DHT22;23441;50.856;6.076;2023-02-01T16:36:31;6.40;99.90
37594;DHT22;23441;50.856;6.076;2023-02-01T16:38:57;6.40;99.90
37594;DHT22;23441;50.856;6.076;2023-02-01T16:41:24;6.40;99.90
37594;DHT22;23441;50.856;6.076;2023-02-01T16:43:52;6.30;99.90
37594;DHT22;23441;50.856;6.076;2023-02-01T16:46:20;6.30;99.90
37594;DHT22;23441;50.856;6.076;2023-02-01T16:48:53;6.30;99.90
37594;DHT22;23441;50.856;6.076;2023-02-01T16:51:20;6.30;99.90
37594;DHT22;23441;50.856;6.076;2023-02-01T16:53:46;6.30;99.90
37594;DHT22;23441;50.856;6.076;2023-02-01T16:56:38;6.30;99.90
37594;DHT22;23441;50.856;6.076;2023-02-01T16:59:06;6.30;99.90
37594;DHT22;23441;50.856;6.076;2023-02-01T17:01:34;6.30;99.90
37594;DHT22;23441;50.856;6.076;2023-02-01T17:04:00;6.30;99.90
37594;DHT22;23441;50.856;6.076;2023-02-01T17:06:26;6.30;99.90
37594;DHT22;23441;50.856;6.076;2023-02-01T17:08:57;6.30;99.90
37594;DHT22;23441;50.856;6.076;2023-02-01T17:11:23;6.40;99.90
37594;DHT22;23441;50.856;6.076;2023-02-01T17:13:50;6.40;99.90
37594;DHT22;23441;50.856;6.076;2023-02-01T17:16:22;6.40;99.90
37594;DHT22;23441;50.856;6.076;2023-02-01T17:19:04;6.40;99.90
37594;DHT22;23441;50.856;6.076;2023-02-01T17:21:34;6.40;99.90
37594;DHT22;23441;50.856;6.076;2023-02-01T17:24:04;6.50;99.90
37594;DHT22;23441;50.856;6.076;2023-02-01T17:26:29;6.40;99.90
37594;DHT22;23441;50.856;6.076;2023-02-01T17:28:55;6.40;99.90
37594;DHT22;23441;50.856;6.076;2023-02-01T17:31:22;6.40;99.90
37594;DHT22;23441;50.856;6.076;2023-02-01T17:33:48;6.40;99.90
37594;DHT22;23441;50.856;6.076;2023-02-01T17:36:16;6.40;99.90
37594;DHT22;23441;50.856;6.076;2023-02-01T17:38:42;6.40;99.90
37594;DHT22;23441;50.856;6.076;2023-02-01T17:41:12;6.40;99.90
37594;DHT22;23441;50.856;6.076;2023-02-01T17:43:38;6.40;99.90
37594;DHT22;23441;50.856;6.076;2023-02-01T17:46:15;6.40;99.90
37594;DHT22;23441;50.856;6.076;2023-02-01T17:48:41;6.40;99.90
37594;DHT22;23441;50.856;6.076;2023-02-01T17:51:18;6.40;99.90
37594;DHT22;23441;50.856;6.076;2023-02-01T17:53:45;6.50;99.90
37594;DHT22;23441;50.856;6.076;2023-02-01T17:56:19;6.50;99.90
37594;DHT22;23441;50.856;6.076;2023-02-01T17:58:46;6.50;99.90
37594;DHT22;23441;50.856;6.076;2023-02-01T18:01:14;6.50;99.90
37594;DHT22;23441;50.856;6.076;2023-02-01T18:03:40;6.50;99.90
37594;DHT22;23441;50.856;6.076;2023-02-01T18:06:14;6.50;99.90
37594;DHT22;23441;50.856;6.076;2023-02-01T18:08:40;6.50;99.90
37594;DHT22;23441;50.856;6.076;2023-02-01T18:11:19;6.50;99.90
37594;DHT22;23441;50.856;6.076;2023-02-01T18:13:45;6.50;99.90
37594;DHT22;23441;50.856;6.076;2023-02-01T18:16:27;6.50;99.90
37594;DHT22;23441;50.856;6.076;2023-02-01T18:18:53;6.50;99.90
37594;DHT22;23441;50.856;6.076;2023-02-01T18:21:20;6.50;99.90
37594;DHT22;23441;50.856;6.076;2023-02-01T18:23:47;6.50;99.90
37594;DHT22;23441;50.856;6.076;2023-02-01T18:26:15;6.50;99.90
37594;DHT22;23441;50.856;6.076;2023-02-01T18:28:42;6.50;99.90
37594;DHT22;23441;50.856;6.076;2023-02-01T18:31:21;6.50;99.90
37594;DHT22;23441;50.856;6.076;2023-02-01T18:33:51;6.50;99.90
37594;DHT22;23441;50.856;6.076;2023-02-01T18:36:17;6.50;99.90
37594;DHT22;23441;50.856;6.076;2023-02-01T18:38:43;6.50;99.90
37594;DHT22;23441;50.856;6.076;2023-02-01T18:41:19;6.50;99.90
37594;DHT22;23441;50.856;6.076;2023-02-01T18:43:49;6.50;99.90
37594;DHT22;23441;50.856;6.076;2023-02-01T18:46:15;6.50;99.90
37594;DHT22;23441;50.856;6.076;2023-02-01T18:48:42;6.50;99.90
37594;DHT22;23441;50.856;6.076;2023-02-01T18:51:12;6.50;99.90